Time;durP1;ratioP1;P1;durP2;ratioP2;P2;SDS_P1;SDS_P2;PMS_P1;PMS_P2;Temp;Humidity;BMP_temperature;BMP_pressure;BME280_temperature;BME280_humidity;BME280_pressure;Samples;Min_cycle;Max_cycle;Signal;HPM_P1;HPM_P2
2022/04/19 00:00:04;;;;;;;;;;;;;;;8.08;59.64;99393.16;4308887;33;20322;-91
2022/04/19 00:02:30;;;;;;;;;;;;;;;7.85;59.63;99392.03;4321053;33;20111;-91
2022/04/19 00:04:58;;;;;;;;;;;;;;;7.84;59.63;99389.50;4334541;33;19984;-92
2022/04/19 00:07:23;;;;;;;;;;;;;;;7.74;59.62;99383.69;4334548;33;19975;-90
2022/04/19 00:09:48;;;;;;;;;;;;;;;7.70;59.62;99380.34;4321209;33;20324;-91
2022/04/19 00:12:14;;;;;;;;;;;;;;;7.78;59.62;99381.88;4334509;33;19991;-91
2022/04/19 00:14:40;;;;;;;;;;;;;;;7.75;59.62;99375.03;4320723;33;21911;-90
2022/04/19 00:17:05;;;;;;;;;;;;;;;7.63;59.62;99373.63;4309086;33;19987;-91
2022/04/19 00:19:31;;;;;;;;;;;;;;;7.63;59.62;99373.63;4334458;33;19979;-91
2022/04/19 00:21:56;;;;;;;;;;;;;;;7.48;59.61;99368.81;4308964;33;20003;-91
2022/04/19 00:24:21;;;;;;;;;;;;;;;7.50;59.61;99372.22;4308901;33;19998;-90
2022/04/19 00:26:46;;;;;;;;;;;;;;;7.45;59.60;99375.84;4320505;33;27595;-91
2022/04/19 00:29:12;;;;;;;;;;;;;;;7.47;59.61;99372.31;4308982;33;20002;-90
2022/04/19 00:31:37;;;;;;;;;;;;;;;7.43;59.60;99370.69;4309323;33;20054;-91
2022/04/19 00:34:02;;;;;;;;;;;;;;;7.39;59.60;99367.34;4309012;33;20035;-91
2022/04/19 00:36:28;;;;;;;;;;;;;;;7.39;59.60;99364.75;4321986;33;20935;-91
2022/04/19 00:38:53;;;;;;;;;;;;;;;7.38;59.59;99363.03;4334812;33;20216;-91
2022/04/19 00:41:19;;;;;;;;;;;;;;;7.43;59.60;99357.75;4309078;33;20027;-91
2022/04/19 00:43:44;;;;;;;;;;;;;;;7.36;59.60;99359.66;4308588;33;20344;-91
2022/04/19 00:46:09;;;;;;;;;;;;;;;7.39;59.59;99353.53;4308479;33;19980;-90
2022/04/19 00:48:34;;;;;;;;;;;;;;;7.36;59.60;99353.63;4320208;33;20602;-91
2022/04/19 00:51:00;;;;;;;;;;;;;;;7.34;59.60;99348.47;4320633;33;20043;-90
2022/04/19 00:53:25;;;;;;;;;;;;;;;7.37;59.60;99340.63;4308468;33;19984;-91
2022/04/19 00:55:50;;;;;;;;;;;;;;;7.33;59.60;99344.19;4320654;33;20068;-90
2022/04/19 00:58:16;;;;;;;;;;;;;;;7.34;59.60;99345.91;4308511;33;20309;-90
2022/04/19 01:00:43;;;;;;;;;;;;;;;7.32;59.60;99339.03;4308419;33;19996;-90
2022/04/19 01:03:08;;;;;;;;;;;;;;;7.26;59.59;99346.94;4308578;33;19972;-90
2022/04/19 01:05:34;;;;;;;;;;;;;;;7.23;59.59;99342.72;4320546;33;20630;-90
2022/04/19 01:07:59;;;;;;;;;;;;;;;7.10;59.59;99336.16;4308286;33;19991;-90
2022/04/19 01:10:25;;;;;;;;;;;;;;;7.19;59.59;99330.72;4308237;33;19996;-91
2022/04/19 01:15:34;;;;;;;;;;;;;;;7.19;59.59;99335.91;4333880;33;20002;-90
2022/04/19 01:18:01;;;;;;;;;;;;;;;7.07;59.58;99333.59;4308220;33;19972;-91
2022/04/19 01:20:28;;;;;;;;;;;;;;;7.06;59.58;99329.31;4308432;33;20047;-91
2022/04/19 01:22:53;;;;;;;;;;;;;;;7.12;59.58;99324.03;4308182;33;20051;-91
2022/04/19 01:25:19;;;;;;;;;;;;;;;7.19;59.59;99325.56;4320265;33;19979;-91
2022/04/19 01:27:44;;;;;;;;;;;;;;;7.32;59.60;99321.75;4308097;33;20385;-91
2022/04/19 01:30:10;;;;;;;;;;;;;;;7.35;59.60;99320.84;4308006;33;20051;-90
2022/04/19 01:32:35;;;;;;;;;;;;;;;7.22;59.59;99319.44;4320118;33;19968;-91
2022/04/19 01:35:19;;;;;;;;;;;;;;;7.11;59.59;99317.16;4308054;33;19984;-90
2022/04/19 01:37:45;;;;;;;;;;;;;;;7.18;59.59;99318.69;4320253;33;19995;-90
2022/04/19 01:40:16;;;;;;;;;;;;;;;7.19;59.59;99319.53;4307995;33;20000;-91
2022/04/19 01:42:52;;;;;;;;;;;;;;;7.25;59.60;99314.19;4308468;33;19986;-91
2022/04/19 01:45:20;;;;;;;;;;;;;;;7.26;59.59;99311.56;4307943;33;19992;-91
2022/04/19 01:47:46;;;;;;;;;;;;;;;7.24;59.60;99303.00;4309526;33;19988;-91
2022/04/19 01:50:15;;;;;;;;;;;;;;;7.22;59.59;99309.94;4309763;33;20027;-90
2022/04/19 01:52:40;;;;;;;;;;;;;;;7.16;59.58;99307.53;4335354;33;19988;-91
2022/04/19 01:55:06;;;;;;;;;;;;;;;7.30;59.59;99299.37;4321988;33;20287;-91
2022/04/19 01:57:31;;;;;;;;;;;;;;;7.30;59.59;99296.78;4309719;33;19999;-91
2022/04/19 01:59:56;;;;;;;;;;;;;;;7.29;59.59;99295.09;4309755;33;19991;-91
2022/04/19 02:02:23;;;;;;;;;;;;;;;7.22;59.59;99294.41;4321726;33;19972;-91
2022/04/19 02:04:50;;;;;;;;;;;;;;;7.28;59.59;99290.81;4309746;33;20035;-91
2022/04/19 02:07:15;;;;;;;;;;;;;;;7.19;59.59;99296.25;4322107;33;19988;-91
2022/04/19 02:09:41;;;;;;;;;;;;;;;7.28;59.59;99294.25;4321927;33;20038;-91
2022/04/19 02:12:06;;;;;;;;;;;;;;;7.28;59.59;99285.63;4309327;33;20366;-90
2022/04/19 02:14:31;;;;;;;;;;;;;;;7.18;59.59;99286.78;4335400;33;19971;-91
2022/04/19 02:16:56;;;;;;;;;;;;;;;7.22;59.59;99293.56;4335452;33;20271;-91
2022/04/19 02:19:22;;;;;;;;;;;;;;;7.08;59.58;99283.56;4322003;33;19988;-91
2022/04/19 02:21:47;;;;;;;;;;;;;;;7.04;59.58;99284.53;4322001;33;20011;-92
2022/04/19 02:24:12;;;;;;;;;;;;;;;7.15;59.59;99282.53;4322338;33;20004;-91
2022/04/19 02:26:37;;;;;;;;;;;;;;;7.04;59.58;99287.09;4310431;33;20372;-90
2022/04/19 02:29:03;;;;;;;;;;;;;;;7.03;59.58;99283.66;4310563;33;20010;-90
2022/04/19 02:31:29;;;;;;;;;;;;;;;6.96;59.57;99287.31;4321920;33;20040;-89
2022/04/19 02:33:56;;;;;;;;;;;;;;;7.22;59.59;99284.06;4310252;33;20549;-90
2022/04/19 02:36:21;;;;;;;;;;;;;;;6.85;59.57;99284.13;4309545;33;20137;-90
2022/04/19 02:38:46;;;;;;;;;;;;;;;6.74;59.57;99283.53;4321681;33;20007;-90
2022/04/19 02:41:11;;;;;;;;;;;;;;;6.80;59.56;99279.94;4321042;33;25815;-91
2022/04/19 02:43:38;;;;;;;;;;;;;;;6.86;59.57;99274.63;4335174;33;20019;-91
2022/04/19 02:46:04;;;;;;;;;;;;;;;6.69;59.55;99277.63;4321761;33;20014;-91
2022/04/19 02:48:30;;;;;;;;;;;;;;;6.55;59.55;99270.19;4309298;33;20342;-91
2022/04/19 02:50:55;;;;;;;;;;;;;;;6.35;59.54;99273.22;4309503;33;20041;-91
2022/04/19 02:53:21;;;;;;;;;;;;;;;6.43;59.54;99275.66;4308838;33;21991;-91
2022/04/19 02:55:46;;;;;;;;;;;;;;;6.42;59.54;99276.53;4309234;33;20389;-90
2022/04/19 02:58:11;;;;;;;;;;;;;;;6.37;59.54;99280.94;4309057;33;20003;-90
2022/04/19 03:00:37;;;;;;;;;;;;;;;6.35;59.55;99280.97;4321401;33;20003;-91
2022/04/19 03:03:02;;;;;;;;;;;;;;;6.37;59.54;99292.13;4334880;33;19972;-90
2022/04/19 03:05:27;;;;;;;;;;;;;;;6.35;59.55;99288.72;4320882;33;25430;-90
2022/04/19 03:07:52;;;;;;;;;;;;;;;6.22;59.53;99297.66;4334218;33;25518;-90
2022/04/19 03:10:17;;;;;;;;;;;;;;;6.08;59.53;99299.69;4334600;33;20255;-90
2022/04/19 03:12:43;;;;;;;;;;;;;;;6.02;59.52;99300.66;4321325;33;19992;-91
2022/04/19 03:15:10;;;;;;;;;;;;;;;6.02;59.52;99298.06;4334874;33;20022;-91
2022/04/19 03:17:35;;;;;;;;;;;;;;;6.06;59.53;99301.44;4321557;33;20186;-91
2022/04/19 03:20:01;;;;;;;;;;;;;;;6.07;59.52;99296.25;4309153;33;19988;-90
2022/04/19 03:27:41;;;;;;;;;;;;;;;6.16;59.53;99292.63;4334778;33;19987;-91
2022/04/19 03:27:55;;;;;;;;;;;;;;;6.04;59.51;99288.56;4334738;33;20011;-91
2022/04/19 03:30:20;;;;;;;;;;;;;;;6.02;59.52;99282.56;4320996;33;20322;-90
2022/04/19 03:32:47;;;;;;;;;;;;;;;6.00;59.52;99286.06;4308993;33;20249;-91
2022/04/19 03:35:12;;;;;;;;;;;;;;;5.96;59.51;99289.63;4309160;33;19992;-91
2022/04/19 03:37:41;;;;;;;;;;;;;;;5.91;59.52;99289.69;4309025;33;20036;-90
2022/04/19 03:40:06;;;;;;;;;;;;;;;5.76;59.51;99290.81;4309386;33;20010;-90
2022/04/19 03:42:32;;;;;;;;;;;;;;;5.74;59.50;99284.00;4308842;33;19980;-90
2022/04/19 03:44:57;;;;;;;;;;;;;;;5.75;59.50;99286.53;4334680;33;20003;-90
2022/04/19 03:47:22;;;;;;;;;;;;;;;5.63;59.50;99286.78;4320455;33;27550;-89
2022/04/19 03:49:47;;;;;;;;;;;;;;;5.66;59.49;99278.13;4308429;33;23542;-90
2022/04/19 03:52:13;;;;;;;;;;;;;;;5.54;59.49;99280.06;4321327;33;19988;-90
2022/04/19 03:54:38;;;;;;;;;;;;;;;5.66;59.49;99281.53;4321242;33;20035;-90
2022/04/19 03:57:04;;;;;;;;;;;;;;;5.79;59.50;99272.69;4320762;33;20774;-90
2022/04/19 03:59:30;;;;;;;;;;;;;;;5.54;59.49;99282.66;4309001;33;19980;-90
2022/04/19 04:01:55;;;;;;;;;;;;;;;5.46;59.49;99281.94;4321310;33;19992;-91
2022/04/19 04:04:21;;;;;;;;;;;;;;;5.33;59.49;99277.87;4308814;33;19996;-90
2022/04/19 04:06:48;;;;;;;;;;;;;;;5.32;59.48;99283.06;4321406;33;20353;-90
2022/04/19 04:09:13;;;;;;;;;;;;;;;5.32;59.49;99276.19;4320701;33;19995;-90
2022/04/19 04:11:38;;;;;;;;;;;;;;;5.23;59.47;99278.94;4321294;33;20032;-90
2022/04/19 04:14:04;;;;;;;;;;;;;;;5.13;59.47;99280.81;4308991;33;20076;-90
2022/04/19 04:16:30;;;;;;;;;;;;;;;5.24;59.48;99281.50;4309579;33;20008;-90
2022/04/19 04:18:55;;;;;;;;;;;;;;;5.34;59.48;99279.59;4309788;33;20008;-91
2022/04/19 04:21:20;;;;;;;;;;;;;;;5.31;59.47;99281.38;4310860;33;20022;-90
2022/04/19 04:23:45;;;;;;;;;;;;;;;5.37;59.48;99287.25;4309775;33;20003;-90
2022/04/19 04:26:11;;;;;;;;;;;;;;;5.40;59.49;99281.19;4308956;33;20329;-90
2022/04/19 04:28:36;;;;;;;;;;;;;;;5.41;59.48;99282.91;4320896;33;19976;-90
2022/04/19 04:31:01;;;;;;;;;;;;;;;5.35;59.48;99285.59;4308026;33;27045;-90
2022/04/19 04:33:26;;;;;;;;;;;;;;;5.35;59.48;99285.59;4308134;33;23081;-90
2022/04/19 04:35:51;;;;;;;;;;;;;;;5.36;59.48;99287.28;4308717;33;20028;-91
2022/04/19 04:38:17;;;;;;;;;;;;;;;5.44;59.48;99285.41;4308237;33;20035;-90
2022/04/19 04:40:42;;;;;;;;;;;;;;;5.50;59.49;99285.31;4320352;33;24381;-90
2022/04/19 04:43:07;;;;;;;;;;;;;;;5.38;59.47;99291.53;4320704;33;20058;-91
2022/04/19 04:45:32;;;;;;;;;;;;;;;5.67;59.50;99287.56;4308457;33;20345;-90
2022/04/19 04:50:41;;;;;;;;;;;;;;;5.79;59.50;99282.16;4334304;33;20031;-90
2022/04/19 04:53:07;;;;;;;;;;;;;;;5.84;59.51;99281.19;4308553;33;20000;-90
2022/04/19 04:55:32;;;;;;;;;;;;;;;5.95;59.51;99282.75;4308497;33;20035;-90
2022/04/19 04:58:01;;;;;;;;;;;;;;;5.90;59.52;99287.97;4307858;33;26933;-90
2022/04/19 05:00:26;;;;;;;;;;;;;;;5.97;59.51;99291.31;4321131;33;20083;-90
2022/04/19 05:02:51;;;;;;;;;;;;;;;6.00;59.52;99296.41;4308284;33;20026;-90
2022/04/19 05:05:17;;;;;;;;;;;;;;;5.90;59.52;99285.41;4320691;33;20286;-90
2022/04/19 05:07:42;;;;;;;;;;;;;;;6.04;59.52;99292.87;4308402;33;20299;-89
2022/04/19 05:10:08;;;;;;;;;;;;;;;6.18;59.52;99282.25;4320594;33;20012;-90
2022/04/19 05:12:33;;;;;;;;;;;;;;;6.25;59.53;99279.50;4320473;33;19991;-91
2022/04/19 05:14:58;;;;;;;;;;;;;;;6.25;59.53;99284.66;4308447;33;20003;-89
2022/04/19 05:17:23;;;;;;;;;;;;;;;6.47;59.54;99285.03;4320368;33;19976;-91
2022/04/19 05:19:49;;;;;;;;;;;;;;;6.58;59.56;99287.38;4320116;33;19988;-90
2022/04/19 05:22:14;;;;;;;;;;;;;;;6.63;59.55;99280.38;4307328;33;20051;-90
2022/04/19 05:24:39;;;;;;;;;;;;;;;6.57;59.54;99281.34;4308065;33;19992;-90
2022/04/19 05:27:04;;;;;;;;;;;;;;;6.79;59.56;99281.69;4320380;33;20333;-90
2022/04/19 05:29:30;;;;;;;;;;;;;;;6.85;59.56;99280.69;4320219;33;20015;-90
2022/04/19 05:31:55;;;;;;;;;;;;;;;7.00;59.58;99290.66;4319991;33;22423;-91
2022/04/19 05:34:20;;;;;;;;;;;;;;;6.97;59.57;99282.97;4308137;33;19996;-90
2022/04/19 05:36:45;;;;;;;;;;;;;;;7.23;59.58;99282.31;4320198;33;20240;-91
2022/04/19 05:39:11;;;;;;;;;;;;;;;7.15;59.58;99281.69;4308016;33;20048;-91
2022/04/19 05:41:39;;;;;;;;;;;;;;;7.30;59.59;99281.25;4320217;33;20002;-90
2022/04/19 05:44:04;;;;;;;;;;;;;;;7.30;59.59;99286.44;4308373;33;20018;-91
2022/04/19 05:46:30;;;;;;;;;;;;;;;7.40;59.60;99282.75;4307662;33;19976;-90
2022/04/19 05:48:56;;;;;;;;;;;;;;;7.51;59.60;99285.03;4320239;33;19979;-90
2022/04/19 05:51:21;;;;;;;;;;;;;;;7.87;59.62;99284.03;4307804;33;19984;-90
2022/04/19 05:53:46;;;;;;;;;;;;;;;7.97;59.62;99269.91;4319928;33;20040;-91
2022/04/19 05:56:11;;;;;;;;;;;;;;;8.12;59.63;99276.37;4307367;33;21153;-91
2022/04/19 05:58:36;;;;;;;;;;;;;;;8.22;59.64;99267.44;4307790;33;19980;-91
2022/04/19 06:01:02;;;;;;;;;;;;;;;8.31;59.65;99274.09;4319902;33;20301;-91
2022/04/19 06:06:11;;;;;;;;;;;;;;;8.69;59.67;99272.91;4322075;33;19989;-91
2022/04/19 06:08:36;;;;;;;;;;;;;;;9.12;59.70;99280.16;4306953;33;31774;-91
2022/04/19 06:11:02;;;;;;;;;;;;;;;9.18;59.69;99279.09;4319984;33;19977;-91
2022/04/19 06:13:27;;;;;;;;;;;;;;;9.30;59.71;99278.69;4319790;33;20326;-91
2022/04/19 06:15:53;;;;;;;;;;;;;;;9.66;59.72;99275.69;4307651;33;19984;-91
2022/04/19 06:18:18;;;;;;;;;;;;;;;9.77;59.72;99276.16;4307717;33;20018;-91
2022/04/19 06:20:43;;;;;;;;;;;;;;;9.88;59.74;99274.00;4307516;33;20027;-90
2022/04/19 06:23:09;;;;;;;;;;;;;;;10.08;59.74;99270.69;4307475;33;20014;-91
2022/04/19 06:25:34;;;;;;;;;;;;;;;10.18;59.75;99263.38;4307503;33;19976;-92
2022/04/19 06:27:59;;;;;;;;;;;;;;;10.49;59.77;99253.50;4307646;33;19984;-91
2022/04/19 06:30:24;;;;;;;;;;;;;;;10.54;59.76;99256.78;4307444;33;20019;-91
2022/04/19 06:32:50;;;;;;;;;;;;;;;10.88;59.79;99252.78;4308646;33;20023;-91
2022/04/19 06:35:16;;;;;;;;;;;;;;;11.02;59.80;99242.66;4309678;33;20303;-92
2022/04/19 06:37:41;;;;;;;;;;;;;;;11.14;59.81;99244.78;4309542;33;19967;-92
2022/04/19 06:40:06;;;;;;;;;;;;;;;11.28;59.81;99241.56;4309638;33;19995;-92
2022/04/19 06:42:32;;;;;;;;;;;;;;;11.56;59.82;99239.44;4321800;33;20006;-91
2022/04/19 06:44:57;;;;;;;;;;;;;;;11.72;59.84;99239.63;4321771;33;19975;-91
2022/04/19 06:47:25;;;;;;;;;;;;;;;11.83;59.85;99232.22;4309405;33;20246;-91
2022/04/19 06:49:51;;;;;;;;;;;;;;;12.01;59.85;99238.31;4309816;33;20019;-91
2022/04/19 06:52:16;;;;;;;;;;;;;;;12.27;59.86;99239.72;4309634;33;20020;-90
2022/04/19 06:54:42;;;;;;;;;;;;;;;12.39;59.87;99240.94;4321233;33;23904;-92
2022/04/19 06:57:07;;;;;;;;;;;;;;;12.57;59.88;99237.44;4309493;33;19984;-92
2022/04/19 06:59:32;;;;;;;;;;;;;;;12.64;59.88;99235.38;4309504;33;20004;-90
2022/04/19 07:01:57;;;;;;;;;;;;;;;12.56;59.88;99227.91;4309424;33;20027;-92
2022/04/19 07:04:22;;;;;;;;;;;;;;;12.41;59.87;99236.47;4309286;33;20252;-92
2022/04/19 07:06:49;;;;;;;;;;;;;;;12.41;59.87;99226.88;4308941;33;26644;-91
2022/04/19 07:09:14;;;;;;;;;;;;;;;12.30;59.87;99234.34;4321728;33;19976;-92
2022/04/19 07:11:39;;;;;;;;;;;;;;;12.23;59.87;99231.19;4335142;33;20326;-91
2022/04/19 07:14:05;;;;;;;;;;;;;;;12.21;59.87;99234.81;4309477;33;19983;-91
2022/04/19 07:16:30;;;;;;;;;;;;;;;12.23;59.87;99233.81;4309416;33;19998;-91
2022/04/19 07:18:55;;;;;;;;;;;;;;;12.41;59.87;99234.72;4321652;33;20385;-92
2022/04/19 07:26:48;;;;;;;;;;;;;;;12.60;59.89;99225.09;4335020;33;20443;-91
2022/04/19 07:29:15;;;;;;;;;;;;;;;12.76;59.89;99227.75;4321567;33;19988;-91
2022/04/19 07:31:41;;;;;;;;;;;;;;;12.75;59.90;99227.84;4321619;33;20095;-91
2022/04/19 07:34:06;;;;;;;;;;;;;;;12.85;59.90;99223.87;4321571;33;19986;-91
2022/04/19 07:36:32;;;;;;;;;;;;;;;12.81;59.90;99230.19;4321400;33;20301;-92
2022/04/19 07:39:00;;;;;;;;;;;;;;;12.86;59.90;99225.56;4309196;33;20010;-92
2022/04/19 07:41:25;;;;;;;;;;;;;;;13.00;59.91;99228.31;4309482;33;20008;-91
2022/04/19 07:43:51;;;;;;;;;;;;;;;13.33;59.93;99224.97;4308273;33;19998;-92
2022/04/19 07:46:16;;;;;;;;;;;;;;;13.43;59.93;99220.94;4309050;33;20393;-92
2022/04/19 07:48:42;;;;;;;;;;;;;;;13.37;59.93;99226.50;4308926;33;27108;-91
2022/04/19 07:51:08;;;;;;;;;;;;;;;13.37;59.93;99221.25;4321534;33;20022;-92
2022/04/19 07:53:33;;;;;;;;;;;;;;;13.52;59.94;99225.72;4308590;33;29923;-92
2022/04/19 07:55:58;;;;;;;;;;;;;;;13.38;59.93;99222.94;4309151;33;20302;-92
2022/04/19 07:58:24;;;;;;;;;;;;;;;13.38;59.93;99223.78;4321058;33;19983;-93
2022/04/19 08:00:49;;;;;;;;;;;;;;;13.60;59.94;99225.28;4309115;33;20006;-92
2022/04/19 08:03:14;;;;;;;;;;;;;;;13.68;59.94;99220.50;4308968;33;20294;-92
2022/04/19 08:05:39;;;;;;;;;;;;;;;13.81;59.95;99226.78;4308896;33;20003;-89
2022/04/19 08:08:05;;;;;;;;;;;;;;;14.03;59.97;99226.47;4308476;33;31473;-92
2022/04/19 08:10:30;;;;;;;;;;;;;;;14.17;59.97;99212.59;4321265;33;20018;-91
2022/04/19 08:12:55;;;;;;;;;;;;;;;14.18;59.97;99227.38;4308985;33;20026;-91
2022/04/19 08:15:20;;;;;;;;;;;;;;;14.23;59.97;99218.38;4308628;33;23223;-91
2022/04/19 08:17:45;;;;;;;;;;;;;;;14.52;59.99;99214.16;4308867;33;20011;-91
2022/04/19 08:20:13;;;;;;;;;;;;;;;14.67;60.00;99213.28;4321285;33;19979;-91
2022/04/19 08:22:39;;;;;;;;;;;;;;;14.83;60.00;99218.47;4309258;33;19984;-89
2022/04/19 08:25:06;;;;;;;;;;;;;;;15.00;60.01;99218.34;4321151;33;20035;-89
2022/04/19 08:27:31;;;;;;;;;;;;;;;15.03;60.02;99220.78;4334455;33;19984;-91
2022/04/19 08:29:56;;;;;;;;;;;;;;;15.16;60.03;99215.66;4334599;33;20022;-92
2022/04/19 08:32:21;;;;;;;;;;;;;;;15.02;60.02;99213.00;4320713;33;25307;-91
2022/04/19 08:34:46;;;;;;;;;;;;;;;14.86;60.02;99214.81;4308643;33;21811;-92
2022/04/19 08:37:12;;;;;;;;;;;;;;;14.85;60.01;99213.12;4308888;33;19988;-90
2022/04/19 08:39:37;;;;;;;;;;;;;;;15.14;60.02;99207.06;4308919;33;20331;-90
2022/04/19 08:42:03;;;;;;;;;;;;;;;15.55;60.05;99201.91;4308944;33;20306;-89
2022/04/19 08:44:28;;;;;;;;;;;;;;;15.80;60.06;99200.44;4321113;33;20002;-90
2022/04/19 08:46:55;;;;;;;;;;;;;;;16.06;60.07;99197.03;4321007;33;19992;-89
2022/04/19 08:49:20;;;;;;;;;;;;;;;16.18;60.09;99201.50;4321203;33;20106;-89
2022/04/19 08:51:45;;;;;;;;;;;;;;;16.55;60.11;99192.09;4320885;33;20019;-89
2022/04/19 08:59:38;;;;;;;;;;;;;;;16.95;60.13;99184.22;4322907;33;20020;-90
2022/04/19 09:02:04;;;;;;;;;;;;;;;16.95;60.13;99191.28;4308333;33;21761;-89
2022/04/19 09:04:30;;;;;;;;;;;;;;;16.98;60.13;99184.03;4308588;33;19994;-89
2022/04/19 09:06:56;;;;;;;;;;;;;;;17.13;60.13;99176.91;4334419;33;19991;-89
2022/04/19 09:09:24;;;;;;;;;;;;;;;17.12;60.13;99178.69;4321015;33;20031;-90
2022/04/19 09:11:53;;;;;;;;;;;;;;;16.69;60.10;99187.75;4321263;33;19976;-92
2022/04/19 09:14:18;;;;;;;;;;;;;;;16.52;60.10;99180.94;4308664;33;20572;-92
2022/04/19 09:16:44;;;;;;;;;;;;;;;16.70;60.12;99186.81;4334194;33;19976;-91
2022/04/19 09:19:09;;;;;;;;;;;;;;;16.92;60.13;99176.56;4320871;33;20011;-89
2022/04/19 09:21:38;;;;;;;;;;;;;;;17.07;60.14;99179.94;4334274;33;19980;-90
2022/04/19 09:24:23;;;;;;;;;;;;;;;17.31;60.15;99170.37;4320705;33;20343;-90
2022/04/19 09:26:49;;;;;;;;;;;;;;;17.37;60.15;99175.22;4320382;33;20353;-90
2022/04/19 09:29:21;;;;;;;;;;;;;;;17.50;60.16;99173.41;4320933;33;20325;-90
2022/04/19 09:32:01;;;;;;;;;;;;;;;17.75;60.17;99171.75;4308677;33;19995;-90
2022/04/19 09:34:28;;;;;;;;;;;;;;;17.83;60.17;99174.66;4321319;33;20299;-90
2022/04/19 09:36:53;;;;;;;;;;;;;;;17.98;60.18;99167.44;4334029;33;19983;-90
2022/04/19 09:39:25;;;;;;;;;;;;;;;18.34;60.20;99156.91;4308264;33;20273;-90
2022/04/19 09:41:58;;;;;;;;;;;;;;;18.54;60.22;99163.34;4320400;33;19975;-90
2022/04/19 09:44:24;;;;;;;;;;;;;;;18.68;60.23;99168.44;4320394;33;19972;-90
2022/04/19 09:47:02;;;;;;;;;;;;;;;18.48;60.21;99170.87;4320110;33;19983;-89
2022/04/19 09:49:44;;;;;;;;;;;;;;;18.24;60.20;99171.72;4308235;33;20008;-90
2022/04/19 09:52:11;;;;;;;;;;;;;;;17.85;60.18;99164.88;4308354;33;19980;-89
2022/04/19 09:54:36;;;;;;;;;;;;;;;17.69;60.17;99167.72;4308221;33;20314;-90
2022/04/19 09:57:09;;;;;;;;;;;;;;;17.46;60.16;99166.69;4307815;33;20027;-89
2022/04/19 09:59:36;;;;;;;;;;;;;;;17.50;60.16;99169.94;4308627;33;20993;-90
2022/04/19 10:10:13;;;;;;;;;;;;;;;17.31;60.15;99174.81;4324614;33;20001;-89
2022/04/19 10:12:38;;;;;;;;;;;;;;;17.23;60.15;99166.59;4309834;33;20004;-90
2022/04/19 10:15:06;;;;;;;;;;;;;;;17.49;60.16;99166.47;4322184;33;19996;-90
2022/04/19 10:17:32;;;;;;;;;;;;;;;17.53;60.16;99161.00;4310203;33;20055;-88
2022/04/19 10:19:59;;;;;;;;;;;;;;;17.31;60.15;99156.41;4322055;33;20031;-90
2022/04/19 10:22:25;;;;;;;;;;;;;;;17.46;60.16;99161.41;4310176;33;19971;-90
2022/04/19 10:24:51;;;;;;;;;;;;;;;17.64;60.17;99153.19;4309930;33;20038;-89
2022/04/19 10:27:17;;;;;;;;;;;;;;;17.75;60.17;99154.16;4309751;33;19987;-89
2022/04/19 10:29:46;;;;;;;;;;;;;;;17.63;60.17;99151.50;4322025;33;20007;-90
2022/04/19 10:32:11;;;;;;;;;;;;;;;17.21;60.14;99161.44;4309867;33;20365;-89
2022/04/19 10:34:37;;;;;;;;;;;;;;;16.90;60.13;99157.41;4309767;33;19991;-89
2022/04/19 10:37:12;;;;;;;;;;;;;;;16.65;60.12;99160.81;4309904;33;20003;-90
2022/04/19 10:39:43;;;;;;;;;;;;;;;16.51;60.11;99159.06;4335455;33;19992;-89
2022/04/19 10:42:10;;;;;;;;;;;;;;;15.96;60.08;99160.03;4309804;33;19972;-93
2022/04/19 10:44:43;;;;;;;;;;;;;;;15.69;60.06;99153.88;4309650;33;19980;-91
2022/04/19 10:47:12;;;;;;;;;;;;;;;15.31;60.05;99156.19;4335353;33;19980;-91
2022/04/19 10:49:50;;;;;;;;;;;;;;;14.61;60.00;99163.00;4310250;33;20658;-91
2022/04/19 10:52:34;;;;;;;;;;;;;;;14.32;60.00;99170.72;4322001;33;20034;-91
2022/04/19 10:55:01;;;;;;;;;;;;;;;14.18;59.99;99172.41;4321834;33;19976;-92
2022/04/19 11:00:33;;;;;;;;;;;;;;;13.59;59.96;99182.59;4324049;33;20011;-92
2022/04/19 11:03:02;;;;;;;;;;;;;;;13.11;59.93;99191.22;4313048;33;20067;-92
2022/04/19 11:05:46;;;;;;;;;;;;;;;12.97;59.92;99191.06;4310037;33;19998;-91
2022/04/19 11:08:24;;;;;;;;;;;;;;;12.74;59.91;99200.87;4310697;33;19992;-92
2022/04/19 11:10:50;;;;;;;;;;;;;;;12.71;59.90;99195.81;4322058;33;20000;-92
2022/04/19 11:13:15;;;;;;;;;;;;;;;12.65;59.89;99190.06;4309866;33;20033;-91
2022/04/19 11:15:44;;;;;;;;;;;;;;;12.79;59.90;99188.47;4321772;33;19996;-91
2022/04/19 11:18:19;;;;;;;;;;;;;;;12.98;59.92;99184.91;4321938;33;20003;-92
2022/04/19 11:20:47;;;;;;;;;;;;;;;12.69;59.90;99191.59;4322057;33;20014;-91
2022/04/19 11:23:20;;;;;;;;;;;;;;;13.02;59.92;99189.91;4321926;33;19976;-91
2022/04/19 11:25:46;;;;;;;;;;;;;;;13.05;59.92;99197.59;4321824;33;20615;-92
2022/04/19 11:28:11;;;;;;;;;;;;;;;13.09;59.92;99200.91;4309440;33;20034;-92
2022/04/19 11:30:37;;;;;;;;;;;;;;;13.27;59.94;99199.16;4321495;33;19988;-91
2022/04/19 11:33:02;;;;;;;;;;;;;;;13.19;59.94;99202.97;4309160;33;19980;-91
2022/04/19 11:35:32;;;;;;;;;;;;;;;13.17;59.92;99210.06;4321523;33;19984;-91
2022/04/19 11:37:57;;;;;;;;;;;;;;;13.10;59.92;99213.03;4321857;33;20043;-91
2022/04/19 11:48:44;;;;;;;;;;;;;;;12.15;59.88;99232.47;4309062;33;20004;-91
2022/04/19 11:51:10;;;;;;;;;;;;;;;11.96;59.87;99238.53;4295106;33;20030;-91
2022/04/19 11:53:36;;;;;;;;;;;;;;;11.96;59.87;99228.09;4294809;33;20342;-91
2022/04/19 11:56:01;;;;;;;;;;;;;;;12.02;59.86;99233.94;4306742;33;20008;-91
2022/04/19 11:58:26;;;;;;;;;;;;;;;12.05;59.87;99232.03;4306685;33;20036;-91
2022/04/19 12:00:55;;;;;;;;;;;;;;;11.93;59.86;99227.41;4294744;33;20051;-90
2022/04/19 12:03:24;;;;;;;;;;;;;;;11.93;59.86;99238.69;4294650;33;19994;-90
2022/04/19 12:05:51;;;;;;;;;;;;;;;11.85;59.86;99243.41;4306978;33;20007;-90
2022/04/19 12:08:30;;;;;;;;;;;;;;;11.85;59.86;99243.41;4294721;33;20000;-91
2022/04/19 12:10:56;;;;;;;;;;;;;;;11.92;59.86;99246.59;4294759;33;20014;-90
2022/04/19 12:13:21;;;;;;;;;;;;;;;11.93;59.86;99243.91;4306207;33;23899;-92
2022/04/19 12:15:47;;;;;;;;;;;;;;;11.94;59.86;99245.59;4294613;33;19988;-92
2022/04/19 12:18:23;;;;;;;;;;;;;;;11.94;59.86;99245.59;4294356;33;20024;-90
2022/04/19 12:20:49;;;;;;;;;;;;;;;11.98;59.87;99238.47;4306755;33;20056;-90
2022/04/19 12:23:17;;;;;;;;;;;;;;;12.08;59.86;99244.13;4293930;33;27275;-92
2022/04/19 12:25:43;;;;;;;;;;;;;;;11.98;59.87;99244.53;4306570;33;19992;-91
2022/04/19 12:28:09;;;;;;;;;;;;;;;11.95;59.86;99241.22;4306590;33;20071;-91
2022/04/19 12:30:35;;;;;;;;;;;;;;;11.90;59.87;99238.84;4293960;33;20000;-91
2022/04/19 12:33:03;;;;;;;;;;;;;;;11.80;59.85;99237.53;4306621;33;20010;-92
2022/04/19 12:35:34;;;;;;;;;;;;;;;11.63;59.84;99247.88;4306931;33;20340;-91
2022/04/19 12:38:06;;;;;;;;;;;;;;;11.56;59.84;99241.19;4294669;33;19996;-92
2022/04/19 12:40:31;;;;;;;;;;;;;;;11.49;59.83;99238.03;4294576;33;20037;-91
2022/04/19 12:42:56;;;;;;;;;;;;;;;11.43;59.83;99245.28;4306423;33;20003;-92
2022/04/19 12:45:21;;;;;;;;;;;;;;;11.51;59.83;99244.03;4293697;33;25878;-92
2022/04/19 12:47:47;;;;;;;;;;;;;;;11.31;59.82;99247.47;4304050;33;20014;-91
2022/04/19 12:50:16;;;;;;;;;;;;;;;11.17;59.81;99246.41;4321035;33;20020;-91
2022/04/19 12:52:42;;;;;;;;;;;;;;;11.10;59.82;99250.16;4321139;33;20341;-91
2022/04/19 12:55:09;;;;;;;;;;;;;;;11.07;59.81;99243.31;4309172;33;19990;-92
2022/04/19 12:57:36;;;;;;;;;;;;;;;11.15;59.82;99243.84;4309674;33;20014;-92
2022/04/19 13:00:01;;;;;;;;;;;;;;;11.16;59.82;99240.34;4309016;33;20018;-91
2022/04/19 13:02:26;;;;;;;;;;;;;;;11.29;59.83;99230.22;4320903;33;20003;-91
2022/04/19 13:04:51;;;;;;;;;;;;;;;11.10;59.81;99240.56;4320431;33;22222;-91
2022/04/19 13:12:45;;;;;;;;;;;;;;;11.24;59.82;99233.03;4322809;33;20342;-91
2022/04/19 13:15:10;;;;;;;;;;;;;;;11.28;59.82;99231.97;4320759;33;19988;-91
2022/04/19 13:17:37;;;;;;;;;;;;;;;11.38;59.83;99235.91;4308665;33;19988;-92
2022/04/19 13:20:02;;;;;;;;;;;;;;;11.44;59.82;99239.16;4308639;33;20106;-91
2022/04/19 13:22:28;;;;;;;;;;;;;;;11.63;59.84;99225.25;4308526;33;19984;-91
2022/04/19 13:24:53;;;;;;;;;;;;;;;11.75;59.84;99238.63;4320540;33;20238;-92
2022/04/19 13:27:18;;;;;;;;;;;;;;;12.03;59.86;99231.28;4308566;33;20341;-91
2022/04/19 13:29:44;;;;;;;;;;;;;;;12.39;59.88;99236.56;4334253;33;19988;-91
2022/04/19 13:32:09;;;;;;;;;;;;;;;12.63;59.90;99234.53;4320563;33;19976;-91
2022/04/19 13:34:34;;;;;;;;;;;;;;;12.75;59.91;99239.13;4320296;33;19983;-91